createdAt,value
2022-08-11T00:01:05.733Z,1.77
2022-08-11T00:03:43.252Z,1.83
2022-08-11T00:06:11.519Z,1.88
2022-08-11T00:08:38.676Z,1.70
2022-08-11T00:11:08.376Z,1.57
2022-08-11T00:13:40.480Z,1.95
2022-08-11T00:16:19.074Z,2.05
2022-08-11T00:18:48.789Z,2.25
2022-08-11T00:21:16.429Z,2.03
2022-08-11T00:23:45.562Z,1.80
2022-08-11T00:26:14.140Z,2.10
2022-08-11T00:28:41.852Z,1.75
2022-08-11T00:31:11.352Z,1.83
2022-08-11T00:33:45.461Z,1.70
2022-08-11T00:36:16.244Z,1.80
2022-08-11T00:38:45.399Z,1.73
2022-08-11T00:41:30.300Z,1.80
2022-08-11T00:44:13.064Z,1.65
2022-08-11T00:46:57.397Z,1.92
2022-08-11T00:50:00.737Z,1.60
2022-08-11T00:52:44.480Z,1.95
2022-08-11T00:55:55.551Z,1.98
2022-08-11T00:59:34.344Z,2.00
2022-08-11T01:02:30.724Z,1.98
2022-08-11T01:05:15.845Z,1.80
2022-08-11T01:08:03.479Z,1.75
2022-08-11T01:10:54.554Z,1.73
2022-08-11T01:13:54.683Z,1.73
2022-08-11T01:16:39.805Z,1.90
2022-08-11T01:20:04.181Z,1.70
2022-08-11T01:23:26.354Z,1.88
2022-08-11T01:26:13.043Z,1.85
2022-08-11T01:29:06.122Z,1.95
2022-08-11T01:32:02.272Z,2.20
2022-08-11T01:35:12.608Z,1.57
2022-08-11T01:38:23.227Z,1.92
2022-08-11T01:41:01.977Z,1.95
2022-08-11T01:44:12.859Z,2.00
2022-08-11T01:46:47.396Z,1.90
2022-08-11T01:50:07.141Z,1.60
2022-08-11T01:52:30.123Z,2.00
2022-08-11T01:55:34.029Z,1.67
2022-08-11T01:58:43.712Z,1.80
2022-08-11T02:01:37.990Z,1.80
2022-08-11T02:04:29.632Z,2.07
2022-08-11T02:07:34.103Z,1.98
2022-08-11T02:10:38.801Z,2.30
2022-08-11T02:13:10.369Z,1.80
2022-08-11T02:15:55.904Z,1.98
2022-08-11T02:19:10.619Z,2.10
2022-08-11T02:22:05.381Z,2.22
2022-08-11T02:24:44.663Z,2.17
2022-08-11T02:27:23.827Z,2.50
2022-08-11T02:30:06.255Z,2.30
2022-08-11T02:33:14.155Z,1.90
2022-08-11T02:35:50.198Z,2.00
2022-08-11T02:38:25.288Z,2.08
2022-08-11T02:41:43.457Z,2.28
2022-08-11T02:44:16.800Z,2.45
2022-08-11T02:47:14.443Z,2.67
2022-08-11T02:50:07.457Z,2.67
2022-08-11T02:52:40.950Z,2.33
2022-08-11T02:55:56.545Z,2.35
2022-08-11T02:58:26.850Z,2.40
2022-08-11T03:01:11.342Z,2.40
2022-08-11T03:03:51.194Z,2.42
2022-08-11T03:06:23.352Z,2.30
2022-08-11T03:08:52.464Z,2.97
2022-08-11T03:11:57.627Z,2.90
2022-08-11T03:15:14.925Z,2.67
2022-08-11T03:18:03.025Z,2.50
2022-08-11T03:20:53.972Z,2.50
2022-08-11T03:23:39.552Z,2.92
2022-08-11T03:26:15.626Z,2.67
2022-08-11T03:29:24.943Z,2.77
2022-08-11T03:32:07.366Z,2.45
2022-08-11T03:34:38.961Z,2.58
2022-08-11T03:37:38.887Z,2.47
2022-08-11T03:40:41.497Z,2.60
2022-08-11T03:43:26.345Z,2.40
2022-08-11T03:46:17.746Z,2.83
2022-08-11T03:49:32.866Z,3.00
2022-08-11T03:52:17.854Z,2.97
2022-08-11T03:55:01.657Z,2.85
2022-08-11T03:58:10.074Z,2.60
2022-08-11T04:01:07.665Z,2.72
2022-08-11T04:03:56.473Z,2.97
2022-08-11T04:06:42.778Z,2.72
2022-08-11T04:09:35.655Z,2.42
2022-08-11T04:12:35.448Z,2.83
2022-08-11T04:15:21.306Z,3.17
2022-08-11T04:18:06.332Z,2.58
2022-08-11T04:21:06.526Z,2.75
2022-08-11T04:24:34.443Z,2.90
2022-08-11T04:27:37.302Z,3.23
2022-08-11T04:30:22.419Z,3.60
2022-08-11T04:32:59.283Z,3.20
2022-08-11T04:35:51.192Z,3.35
2022-08-11T04:38:58.597Z,3.58
2022-08-11T04:42:17.016Z,2.80
2022-08-11T04:45:11.883Z,2.95
2022-08-11T04:48:23.907Z,3.05
2022-08-11T04:51:27.251Z,2.80
2022-08-11T04:54:57.348Z,3.28
2022-08-11T04:57:59.782Z,3.70
2022-08-11T05:00:51.616Z,2.65
2022-08-11T05:03:53.632Z,3.38
2022-08-11T05:06:57.123Z,2.90
2022-08-11T05:09:55.256Z,3.90
2022-08-11T05:12:48.433Z,2.70
2022-08-11T05:15:42.327Z,3.22
2022-08-11T05:18:39.349Z,3.63
2022-08-11T05:21:44.437Z,3.72
2022-08-11T05:24:38.623Z,3.35
2022-08-11T05:27:27.844Z,3.63
2022-08-11T05:30:21.238Z,3.70
2022-08-11T05:33:16.710Z,3.72
2022-08-11T05:36:00.519Z,3.88
2022-08-11T05:38:50.734Z,3.83
2022-08-11T05:41:38.761Z,3.67
2022-08-11T05:44:25.146Z,3.65
2022-08-11T05:47:10.482Z,3.83
2022-08-11T05:49:58.075Z,3.97
2022-08-11T05:52:47.046Z,3.55
2022-08-11T05:55:34.866Z,4.00
2022-08-11T05:58:04.102Z,4.28
2022-08-11T06:00:32.012Z,4.25
2022-08-11T06:03:01.305Z,3.90
2022-08-11T06:05:37.308Z,4.05
2022-08-11T06:08:12.320Z,3.93
2022-08-11T06:10:42.964Z,4.20
2022-08-11T06:13:10.461Z,4.20
2022-08-11T06:15:51.912Z,3.60
2022-08-11T06:18:19.660Z,4.28
2022-08-11T06:20:50.645Z,4.03
2022-08-11T06:23:23.018Z,4.30
2022-08-11T06:25:52.224Z,4.28
2022-08-11T06:28:21.219Z,4.32
2022-08-11T06:30:48.977Z,4.05
2022-08-11T06:33:21.362Z,4.10
2022-08-11T06:36:06.693Z,4.07
2022-08-11T06:39:18.517Z,4.30
2022-08-11T06:41:59.025Z,4.03
2022-08-11T06:44:39.918Z,4.25
2022-08-11T06:47:15.952Z,4.47
2022-08-11T06:50:06.254Z,4.97
2022-08-11T06:52:36.457Z,4.18
2022-08-11T06:55:55.550Z,4.43
2022-08-11T06:58:16.347Z,3.60
2022-08-11T07:00:44.989Z,4.10
2022-08-11T07:03:13.244Z,4.03
2022-08-11T07:05:45.805Z,3.60
2022-08-11T07:08:49.496Z,3.63
2022-08-11T07:12:08.601Z,3.58
2022-08-11T07:15:00.526Z,3.00
2022-08-11T07:17:30.116Z,3.28
2022-08-11T07:20:18.528Z,3.28
2022-08-11T07:23:11.879Z,3.20
2022-08-11T07:26:00.187Z,2.80
2022-08-11T07:28:46.888Z,3.10
2022-08-11T07:31:29.177Z,2.95
2022-08-11T07:34:17.936Z,2.90
2022-08-11T07:36:52.384Z,3.38
2022-08-11T07:39:25.700Z,3.17
2022-08-11T07:41:54.622Z,3.30
2022-08-11T07:44:22.448Z,3.10
2022-08-11T07:47:09.811Z,3.20
2022-08-11T07:49:57.103Z,3.10
2022-08-11T07:52:32.092Z,3.10
2022-08-11T07:55:05.061Z,3.10
2022-08-11T07:58:15.017Z,2.95
2022-08-11T08:01:10.415Z,3.90
2022-08-11T08:04:02.840Z,3.42
2022-08-11T08:06:51.032Z,3.47
2022-08-11T08:09:38.278Z,2.33
2022-08-11T08:12:24.229Z,3.00
2022-08-11T08:15:11.600Z,3.30
2022-08-11T08:18:20.360Z,3.10
2022-08-11T08:20:52.376Z,2.80
2022-08-11T08:23:33.259Z,3.50
2022-08-11T08:26:04.361Z,3.13
2022-08-11T08:28:32.897Z,3.40
2022-08-11T08:31:01.004Z,3.20
2022-08-11T08:33:31.941Z,3.10
2022-08-11T08:36:15.146Z,3.20
2022-08-11T08:38:47.156Z,3.13
2022-08-11T08:41:17.364Z,2.67
2022-08-11T08:43:49.621Z,2.70
2022-08-11T08:46:20.679Z,2.40
2022-08-11T08:48:49.254Z,2.80
2022-08-11T08:52:01.247Z,2.30
2022-08-11T08:54:29.002Z,2.83
2022-08-11T08:56:56.721Z,2.45
2022-08-11T08:59:26.936Z,2.70
2022-08-11T09:02:13.619Z,2.77
2022-08-11T09:04:41.175Z,2.33
2022-08-11T09:07:12.458Z,2.55
2022-08-11T09:09:48.113Z,2.35
2022-08-11T09:12:16.890Z,2.58
2022-08-11T09:15:05.412Z,2.23
2022-08-11T09:17:40.659Z,2.70
2022-08-11T09:20:11.382Z,2.45
2022-08-11T09:26:11.015Z,2.55
2022-08-11T09:28:37.971Z,2.07
2022-08-11T09:31:06.213Z,2.50
2022-08-11T09:33:33.176Z,2.33
2022-08-11T09:36:20.912Z,2.45
2022-08-11T09:39:06.615Z,2.80
2022-08-11T09:42:00.853Z,2.47
2022-08-11T09:44:39.251Z,2.55
2022-08-11T09:47:14.999Z,2.70
2022-08-11T09:49:44.435Z,2.42
2022-08-11T09:52:14.205Z,2.65
2022-08-11T09:54:42.666Z,2.70
2022-08-11T09:57:33.806Z,2.83
2022-08-11T10:00:12.657Z,2.90
2022-08-11T10:02:44.443Z,2.30
2022-08-11T10:05:32.904Z,3.13
2022-08-11T10:08:01.316Z,2.70
2022-08-11T10:10:29.103Z,2.40
2022-08-11T10:13:02.764Z,2.20
2022-08-11T10:15:39.875Z,2.40
2022-08-11T10:18:52.622Z,2.35
2022-08-11T10:21:25.069Z,2.37
2022-08-11T10:24:11.909Z,2.25
2022-08-11T10:27:00.625Z,3.17
2022-08-11T10:29:55.155Z,2.30
2022-08-11T10:32:58.066Z,2.50
2022-08-11T10:35:27.212Z,2.00
2022-08-11T10:38:06.732Z,2.10
2022-08-11T10:40:38.930Z,2.20
2022-08-11T10:43:10.249Z,2.10
2022-08-11T10:45:57.455Z,2.30
2022-08-11T10:48:28.772Z,2.43
2022-08-11T10:51:14.517Z,2.10
2022-08-11T10:54:03.545Z,2.50
2022-08-11T10:56:51.849Z,2.22
2022-08-11T10:59:18.610Z,2.70
2022-08-11T11:01:46.056Z,2.33
2022-08-11T11:04:16.149Z,2.20
2022-08-11T11:06:48.487Z,1.90
2022-08-11T11:09:32.165Z,2.08
2022-08-11T11:12:29.008Z,2.20
2022-08-11T11:15:20.712Z,2.37
2022-08-11T11:17:57.372Z,2.20
2022-08-11T11:20:36.241Z,2.40
2022-08-11T11:23:10.074Z,2.53
2022-08-11T11:26:10.526Z,2.60
2022-08-11T11:29:30.361Z,2.40
2022-08-11T11:32:04.309Z,2.40
2022-08-11T11:35:08.901Z,2.35
2022-08-11T11:37:36.784Z,2.20
2022-08-11T11:40:13.042Z,2.30
2022-08-11T11:42:41.449Z,2.23
2022-08-11T11:45:10.041Z,2.30
2022-08-11T11:47:53.926Z,2.20
2022-08-11T11:50:32.660Z,2.10
2022-08-11T11:53:01.501Z,2.22
2022-08-11T11:55:29.701Z,2.30
2022-08-11T11:58:18.756Z,2.30
2022-08-11T12:01:05.107Z,2.40
2022-08-11T12:03:33.286Z,2.30
2022-08-11T12:06:00.880Z,2.15
2022-08-11T12:08:28.855Z,2.10
2022-08-11T12:11:18.067Z,2.00
2022-08-11T12:13:50.337Z,2.20
2022-08-11T12:16:33.722Z,2.30
2022-08-11T12:19:02.875Z,2.08
2022-08-11T12:21:30.095Z,2.10
2022-08-11T12:24:17.726Z,2.22
2022-08-11T12:27:15.172Z,2.10
2022-08-11T12:29:35.222Z,2.10
2022-08-11T12:32:02.312Z,2.13
2022-08-11T12:34:31.131Z,1.80
2022-08-11T12:36:59.660Z,1.90
2022-08-11T12:40:16.573Z,1.70
2022-08-11T12:42:56.506Z,2.10
2022-08-11T12:45:27.649Z,2.20
2022-08-11T12:48:59.192Z,2.20
2022-08-11T12:51:29.964Z,2.30
2022-08-11T12:54:25.570Z,2.15
2022-08-11T12:57:24.032Z,2.22
2022-08-11T13:00:24.705Z,2.17
2022-08-11T13:03:10.990Z,2.20
2022-08-11T13:05:44.559Z,2.30
2022-08-11T13:08:14.906Z,2.25
2022-08-11T13:11:01.014Z,2.50
2022-08-11T13:13:54.989Z,2.13
2022-08-11T13:16:15.147Z,2.03
2022-08-11T13:18:42.889Z,2.15
2022-08-11T13:21:20.603Z,2.33
2022-08-11T13:24:00.734Z,2.20
2022-08-11T13:26:43.423Z,2.22
2022-08-11T13:29:17.232Z,2.57
2022-08-11T13:31:44.749Z,2.10
2022-08-11T13:34:11.638Z,2.28
2022-08-11T13:36:38.644Z,2.40
2022-08-11T13:39:05.590Z,2.35
2022-08-11T13:41:39.113Z,2.00
2022-08-11T13:44:07.935Z,2.35
2022-08-11T13:46:35.182Z,2.53
2022-08-11T13:49:02.278Z,2.47
2022-08-11T13:51:35.419Z,2.40
2022-08-11T13:54:10.870Z,2.23
2022-08-11T13:56:39.769Z,2.22
2022-08-11T13:59:11.091Z,2.40
2022-08-11T14:02:19.794Z,2.40
2022-08-11T14:04:49.189Z,2.28
2022-08-11T14:07:20.206Z,2.43
2022-08-11T14:09:47.762Z,2.30
2022-08-11T14:12:47.877Z,2.40
2022-08-11T14:15:35.175Z,2.20
2022-08-11T14:18:06.433Z,2.05
2022-08-11T14:20:56.025Z,2.47
2022-08-11T14:23:28.739Z,2.55
2022-08-11T14:26:14.633Z,2.30
2022-08-11T14:28:44.937Z,2.22
2022-08-11T14:31:15.010Z,2.20
2022-08-11T14:33:58.411Z,2.27
2022-08-11T14:36:28.551Z,2.40
2022-08-11T14:38:55.817Z,2.40
2022-08-11T14:42:07.624Z,2.20
2022-08-11T14:44:49.973Z,2.30
2022-08-11T14:47:24.548Z,2.20
2022-08-11T14:50:04.885Z,2.20
2022-08-11T14:52:37.656Z,2.20
2022-08-11T14:55:23.537Z,2.13
2022-08-11T14:58:04.663Z,2.35
2022-08-11T15:00:34.086Z,2.20
2022-08-11T15:03:12.583Z,2.40
2022-08-11T15:05:57.497Z,2.30
2022-08-11T15:08:46.247Z,2.40
2022-08-11T15:11:34.091Z,2.13
2022-08-11T15:14:03.284Z,2.13
2022-08-11T15:16:48.657Z,2.15
2022-08-11T15:19:16.705Z,2.35
2022-08-11T15:22:01.876Z,2.58
2022-08-11T15:24:30.883Z,2.10
2022-08-11T15:27:19.118Z,2.30
2022-08-11T15:30:06.495Z,2.15
2022-08-11T15:32:58.215Z,2.20
2022-08-11T15:35:47.690Z,2.25
2022-08-11T15:38:16.070Z,2.22
2022-08-11T15:41:02.031Z,2.10
2022-08-11T15:43:51.804Z,2.40
2022-08-11T15:46:23.078Z,2.20
2022-08-11T15:48:59.660Z,2.20
2022-08-11T15:51:45.693Z,2.53
2022-08-11T15:54:17.324Z,2.03
2022-08-11T15:56:48.008Z,2.22
2022-08-11T15:59:43.270Z,2.50
2022-08-11T16:02:33.929Z,2.30
2022-08-11T16:05:06.025Z,2.20
2022-08-11T16:07:40.472Z,2.40
2022-08-11T16:10:17.935Z,2.30
2022-08-11T16:13:06.286Z,2.20
2022-08-11T16:15:55.638Z,1.92
2022-08-11T16:18:40.582Z,2.30
2022-08-11T16:21:26.177Z,2.60
2022-08-11T16:24:06.415Z,2.20
2022-08-11T16:27:07.803Z,2.97
2022-08-11T16:29:25.064Z,4.55
2022-08-11T16:32:14.433Z,2.40
2022-08-11T16:35:01.184Z,2.17
2022-08-11T16:37:48.570Z,2.20
2022-08-11T16:40:16.070Z,4.88
2022-08-11T16:43:10.287Z,11.20
2022-08-11T16:45:58.606Z,3.97
2022-08-11T16:48:36.244Z,2.47
2022-08-11T16:51:03.959Z,2.05
2022-08-11T16:54:00.349Z,2.22
2022-08-11T16:56:25.103Z,2.00
2022-08-11T16:59:13.398Z,2.33
2022-08-11T17:01:41.892Z,1.97
2022-08-11T17:04:34.436Z,2.10
2022-08-11T17:07:40.536Z,2.00
2022-08-11T17:10:31.892Z,2.40
2022-08-11T17:13:17.784Z,2.28
2022-08-11T17:16:08.947Z,2.20
2022-08-11T17:18:44.593Z,2.30
2022-08-11T17:21:26.165Z,2.10
2022-08-11T17:24:08.723Z,2.25
2022-08-11T17:26:58.337Z,2.20
2022-08-11T17:29:27.090Z,2.70
2022-08-11T17:32:13.728Z,2.40
2022-08-11T17:35:01.500Z,2.45
2022-08-11T17:37:33.018Z,2.50
2022-08-11T17:40:01.511Z,2.58
2022-08-11T17:42:49.604Z,2.17
2022-08-11T17:45:37.307Z,2.22
2022-08-11T17:48:24.311Z,2.13
2022-08-11T17:50:53.459Z,2.55
2022-08-11T17:53:39.127Z,2.50
2022-08-11T17:56:25.435Z,2.10
2022-08-11T17:59:32.212Z,2.25
2022-08-11T18:02:21.509Z,2.40
2022-08-11T18:05:01.663Z,2.20
2022-08-11T18:07:46.673Z,2.25
2022-08-11T18:10:33.786Z,2.20
2022-08-11T18:13:23.391Z,2.10
2022-08-11T18:16:09.160Z,1.90
2022-08-11T18:18:54.489Z,1.73
2022-08-11T18:21:39.767Z,1.90
2022-08-11T18:24:30.501Z,1.90
2022-08-11T18:27:21.782Z,1.60
2022-08-11T18:30:10.147Z,1.67
2022-08-11T18:33:25.107Z,1.77
2022-08-11T18:36:06.401Z,1.58
2022-08-11T18:38:51.773Z,1.50
2022-08-11T18:41:37.529Z,1.65
2022-08-11T18:44:25.762Z,1.50
2022-08-11T18:47:13.753Z,1.40
2022-08-11T18:50:05.479Z,1.40
2022-08-11T18:52:53.772Z,1.30
2022-08-11T18:55:39.083Z,1.35
2022-08-11T18:58:28.830Z,1.42
2022-08-11T19:01:16.892Z,1.33
2022-08-11T19:04:11.283Z,1.48
2022-08-11T19:06:58.259Z,1.20
2022-08-11T19:09:45.430Z,1.23
2022-08-11T19:12:32.321Z,1.30
2022-08-11T19:15:19.605Z,1.20
2022-08-11T19:18:05.889Z,1.30
2022-08-11T19:20:55.212Z,1.43
2022-08-11T19:23:48.141Z,1.55
2022-08-11T19:26:34.369Z,1.40
2022-08-11T19:30:11.100Z,1.33
2022-08-11T19:32:30.431Z,1.45
2022-08-11T19:35:15.643Z,1.50
2022-08-11T19:38:03.966Z,1.70
2022-08-11T19:40:50.408Z,1.42
2022-08-11T19:43:37.027Z,1.60
2022-08-11T19:46:24.532Z,1.20
2022-08-11T19:49:12.366Z,1.20
2022-08-11T19:51:58.215Z,1.20
2022-08-11T19:54:51.385Z,1.30
2022-08-11T19:57:40.176Z,1.30
2022-08-11T20:00:30.613Z,1.30
2022-08-11T20:03:17.254Z,1.40
2022-08-11T20:06:04.032Z,1.27
2022-08-11T20:08:50.973Z,1.52
2022-08-11T20:11:37.933Z,1.65
2022-08-11T20:14:25.219Z,1.33
2022-08-11T20:17:12.961Z,1.80
2022-08-11T20:22:48.413Z,1.70
2022-08-11T20:25:36.437Z,1.50
2022-08-11T20:28:24.645Z,1.40
2022-08-11T20:31:12.555Z,1.40
2022-08-11T20:33:59.511Z,1.30
2022-08-11T20:36:52.508Z,1.60
2022-08-11T20:39:40.168Z,1.60
2022-08-11T20:42:29.863Z,1.50
2022-08-11T20:45:18.792Z,1.30
2022-08-11T20:48:10.648Z,1.15
2022-08-11T20:51:06.460Z,1.40
2022-08-11T20:53:58.078Z,1.52
2022-08-11T20:56:46.412Z,1.63
2022-08-11T20:59:49.326Z,1.17
2022-08-11T21:02:41.065Z,1.40
2022-08-11T21:06:05.504Z,1.50
2022-08-11T21:08:36.662Z,1.42
2022-08-11T21:11:27.480Z,1.30
2022-08-11T21:14:14.763Z,1.80
2022-08-11T21:17:25.971Z,1.38
2022-08-11T21:20:17.003Z,1.60
2022-08-11T21:23:23.745Z,1.70
2022-08-11T21:26:15.557Z,1.40
2022-08-11T21:29:01.249Z,1.40
2022-08-11T21:31:50.154Z,1.35
2022-08-11T21:34:38.419Z,1.40
2022-08-11T21:37:26.642Z,1.52
2022-08-11T21:40:17.126Z,1.70
2022-08-11T21:43:05.542Z,1.67
2022-08-11T21:45:54.032Z,1.30
2022-08-11T21:48:41.301Z,1.60
2022-08-11T21:51:26.168Z,1.60
2022-08-11T21:54:12.083Z,1.40
2022-08-11T21:56:58.378Z,1.40
2022-08-11T21:59:56.963Z,2.10
2022-08-11T22:02:43.643Z,1.50
2022-08-11T22:05:35.954Z,1.70
2022-08-11T22:08:21.780Z,1.50
2022-08-11T22:11:07.329Z,1.90
2022-08-11T22:14:01.251Z,1.40
2022-08-11T22:16:51.581Z,1.63
2022-08-11T22:19:37.881Z,1.60
2022-08-11T22:22:25.645Z,1.70
2022-08-11T22:25:16.612Z,1.80
2022-08-11T22:28:04.204Z,1.48
2022-08-11T22:30:49.400Z,1.50
2022-08-11T22:33:35.951Z,1.60
2022-08-11T22:36:26.207Z,1.70
2022-08-11T22:39:12.053Z,1.63
2022-08-11T22:41:56.892Z,1.52
2022-08-11T22:44:42.244Z,1.80
2022-08-11T22:47:38.433Z,1.70
2022-08-11T22:50:27.075Z,1.70
2022-08-11T22:53:12.752Z,1.30
2022-08-11T22:55:59.152Z,1.60
2022-08-11T22:58:45.548Z,1.23
2022-08-11T23:01:35.337Z,1.45
2022-08-11T23:04:21.638Z,1.52
2022-08-11T23:07:08.563Z,1.63
2022-08-11T23:09:54.402Z,1.50
2022-08-11T23:12:39.950Z,1.52
2022-08-11T23:15:25.706Z,1.90
2022-08-11T23:18:11.045Z,1.48
2022-08-11T23:20:58.430Z,1.67
2022-08-11T23:23:47.003Z,1.90
2022-08-11T23:26:34.387Z,1.80
2022-08-11T23:29:21.195Z,1.42
2022-08-11T23:32:10.181Z,1.92
2022-08-11T23:35:04.702Z,1.70
2022-08-11T23:38:03.897Z,1.65
2022-08-11T23:40:48.669Z,1.73
2022-08-11T23:43:41.146Z,1.98
2022-08-11T23:46:25.956Z,1.73
2022-08-11T23:49:20.069Z,1.63
2022-08-11T23:52:06.704Z,1.48
2022-08-11T23:54:53.921Z,1.77
2022-08-11T23:57:47.906Z,1.80
